Terminal Aerodrome Forecast
Issued by NWS Wilmington, NC

Home | Current Version | Previous Version | Text Only | Print | Product List | Glossary On
Versions: 1 2 3 4 5 6 7 8 9 10 11 12 13 14 15 16 17 18
530
FTUS42 KILM 311720
TAFILM
TAF
KILM 311720Z 3118/0118 07005KT P6SM -RA SCT030 OVC120
      TEMPO 3120/3122 VRB08KT 3SM SHRA BKN030
     FM010000 06006KT P6SM FEW020 BKN100
     FM010800 02004KT P6SM SCT006 SCT120
      TEMPO 0109/0112 BKN006
     FM011300 34005KT P6SM SCT035 SCT120=

USA.gov is the U.S. government's official web portal to all federal, state and local government web resources and services.